Weather at Kraków John Paul II International Airport

Public forecast

Using degrees Celsius for public forecast. Weather courtesy of forecast.io.

Current aviation weather report (METAR) for Kraków John Paul II International Airport

Retrieved 2021/01/21 16:30 UTC (27 minutes ago):

EPKK 211630Z 11001KT CAVOK 01/M01 Q1006 R25/12//95

Aviation forecast (TAF) for Kraków John Paul II International Airport

Retrieved 2021/01/21 15:33 UTC (1 hour ago):

TAF TAF EPKK 211430Z 2115/2215 25003KT 7000 NSC BECMG 2116/2119 3000 BR TEMPO 2120/2206 1100 BR BECMG 2206/2209 7000